Elmaton, TX (77440)

8:48 AM CST on February 12, 2016 (GMT -0600)
Selkirk Island | | Change Station
CLOSE
Current Station
Personal Weather Station
Location: Bay City, TX
Elevation: 43 ft
Nearby Weather Stations
Active Advisory: Dense Fog Advisory

Elev 43 ft 28.77 °N, 95.99 °W | Updated 4 minutes ago

Partly Cloudy
Partly Cloudy
62.2 °F
Feels Like 62.2 °F
N
5.3
Wind Variable Wind from South

Today
High -- | Low -- °F
--% Chance of Precip.
Yesterday
High -- | Low -- °F
Precip. -- in
Pressure 30.22 in
Visibility 10.0 miles
Clouds Clear
Dew Point 60 °F
Humidity 94%
Rainfall 0.00 in
Snow Depth Not available.
7:05 AM 6:12 PM
Waxing Crescent, 21% visible
METAR KPSX 121353Z AUTO 19005KT 10SM CLR 16/16 A3022 RMK AO2 SLP232 T01610161
Pressure 30.22 in
Visibility 10.0 miles
Clouds Clear
Dew Point 60 °F
Humidity 94%
Rainfall 0.00 in
Snow Depth Not available.
7:05 AM 6:12 PM
Waxing Crescent, 21% visible
METAR KPSX 121353Z AUTO 19005KT 10SM CLR 16/16 A3022 RMK AO2 SLP232 T01610161

10-Day Weather Forecast

Almanac

Astronomy

Feb. 12, 2016 Rise Set
Actual Time
Civil Twilight
Nautical Twilight
Astronomical Twilight
Moon
Length of Visible Light
Length of Day
Tomorrow will be .
, % of the Moon is Illuminated

Today's Extremes

State Highs State Lows

Community

WunderPhotos

Upload Photos

1,892,318 photos uploaded!

WunderBlog® & News

Nearby

Air Quality

  Air Quality AQ Index Pollutant
Not available.

Snow Depth

Station Depth Elevation

Earthquake Activity

City Distance Mag. Time & Date
Minimum magnitude displayed is 2.5.

Coastal Water Temperatures

Place Temperature

Stations

Nearby Weather Stations

Station Location Temp. Windchill Dew Point Humidity Wind Precip. Elev Updated Type
                   

Watches & Warnings

Dense Fog Advisory
Issued: 5:08 AM CST Feb. 12, 2016 – National Weather Service

... Dense fog advisory in effect until 9 am CST this morning...

The National Weather Service in Houston/Galveston has issued a
dense fog advisory... which is in effect until 9 am CST this morning.

* Event... areas of dense fog with visibilities of one quarter mile or
less.

* Timing... through 9 am CST this morning.

* Impact... driving will be hazardous in areas of dense fog.

Precautionary/preparedness actions...

A dense fog advisory means visibilities will frequently be reduced
to less than one quarter mile. If driving... slow down... use your
headlights... and leave plenty of distance ahead of you.